SIA179 YBBN-YBTL
Flight info
| Callsign | SIA179 |
|---|---|
| Flight time | 1h 37m |
| Altitude | 32000 |
| Route | BIXAD Q67 RUNLA Q493 EMSUP/N0402F200 V308 POROB |
| Aircraft | B738/M-SDE2E3FGHIRWXY/LB1 |
Departure
| Time | 2026-04-15 08:36 |
|---|---|
| Airport | Brisbane International Airport (YBBN) |
Arrival
| Time | 2026-04-15 10:13 |
|---|---|
| Airport | Townsville Airport / RAAF Base Townsville (YBTL) |
| Time | Latitude | Longitude | Altitude | Speed | Heading |
|---|---|---|---|---|---|
| 2026-04-15 08:11 | -27.40232 | 153.11211 | 17 ft | 0 kts | 297° |
| 2026-04-15 08:15 | -27.40058 | 153.11351 | 17 ft | 0 kts | 297° |
| 2026-04-15 08:29 | -27.40067 | 153.11369 | 17 ft | 4 kts | 307° |
| 2026-04-15 08:30 | -27.40085 | 153.11391 | 17 ft | 4 kts | 309° |
| 2026-04-15 08:30 | -27.40098 | 153.11415 | 17 ft | 4 kts | 288° |
| 2026-04-15 08:30 | -27.40098 | 153.11441 | 18 ft | 4 kts | 237° |
| 2026-04-15 08:30 | -27.40079 | 153.11461 | 17 ft | 4 kts | 208° |
| 2026-04-15 08:31 | -27.40068 | 153.11467 | 17 ft | 0 kts | 206° |
| 2026-04-15 08:33 | -27.40081 | 153.11460 | 19 ft | 6 kts | 206° |
| 2026-04-15 08:33 | -27.40130 | 153.11432 | 17 ft | 9 kts | 206° |
| 2026-04-15 08:33 | -27.40192 | 153.11422 | 17 ft | 9 kts | 158° |
| 2026-04-15 08:33 | -27.40229 | 153.11476 | 17 ft | 9 kts | 119° |
| 2026-04-15 08:34 | -27.40260 | 153.11538 | 17 ft | 9 kts | 119° |
| 2026-04-15 08:34 | -27.40291 | 153.11602 | 17 ft | 9 kts | 118° |
| 2026-04-15 08:34 | -27.40320 | 153.11669 | 18 ft | 10 kts | 107° |
| 2026-04-15 08:34 | -27.40322 | 153.11744 | 19 ft | 10 kts | 79° |
| 2026-04-15 08:35 | -27.40221 | 153.11856 | 18 ft | 46 kts | 27° |
| 2026-04-15 08:35 | -27.39719 | 153.12141 | 20 ft | 113 kts | 27° |
| 2026-04-15 08:35 | -27.38838 | 153.12637 | 44 ft | 165 kts | 26° |
| 2026-04-15 08:35 | -27.37749 | 153.13245 | 470 ft | 184 kts | 25° |
| 2026-04-15 08:36 | -27.36970 | 153.13654 | 965 ft | 187 kts | 22° |
| 2026-04-15 08:36 | -27.35795 | 153.14238 | 1821 ft | 189 kts | 19° |
| 2026-04-15 08:36 | -27.34453 | 153.14660 | 2072 ft | 212 kts | 14° |
| 2026-04-15 08:36 | -27.32933 | 153.15056 | 2264 ft | 238 kts | 13° |
| 2026-04-15 08:37 | -27.30699 | 153.15645 | 2892 ft | 256 kts | 14° |
| 2026-04-15 08:37 | -27.28946 | 153.16127 | 3555 ft | 262 kts | 15° |
| 2026-04-15 08:37 | -27.27745 | 153.16464 | 4041 ft | 264 kts | 15° |
| 2026-04-15 08:37 | -27.25971 | 153.16968 | 4710 ft | 268 kts | 15° |
| 2026-04-15 08:38 | -27.24147 | 153.17500 | 5391 ft | 273 kts | 15° |
| 2026-04-15 08:38 | -27.22303 | 153.18043 | 6087 ft | 275 kts | 15° |
| 2026-04-15 08:38 | -27.20432 | 153.18598 | 6753 ft | 280 kts | 15° |
| 2026-04-15 08:38 | -27.18537 | 153.19161 | 7422 ft | 283 kts | 15° |
| 2026-04-15 08:39 | -27.16613 | 153.19735 | 8050 ft | 288 kts | 15° |
| 2026-04-15 08:39 | -27.14666 | 153.20316 | 8720 ft | 291 kts | 14° |
| 2026-04-15 08:39 | -27.12688 | 153.20907 | 9346 ft | 295 kts | 14° |
| 2026-04-15 08:39 | -27.10717 | 153.21496 | 9979 ft | 298 kts | 14° |
| 2026-04-15 08:40 | -27.08681 | 153.22104 | 10380 ft | 312 kts | 14° |
| 2026-04-15 08:40 | -27.06507 | 153.22750 | 10531 ft | 332 kts | 14° |
| 2026-04-15 08:40 | -27.04208 | 153.23434 | 10682 ft | 351 kts | 14° |
| 2026-04-15 08:40 | -27.01761 | 153.23980 | 10876 ft | 364 kts | 2° |
| 2026-04-15 08:41 | -26.99229 | 153.23815 | 11281 ft | 370 kts | 353° |
| 2026-04-15 08:41 | -26.96605 | 153.23724 | 11593 ft | 382 kts | 359° |
| 2026-04-15 08:41 | -26.93934 | 153.23845 | 12075 ft | 386 kts | 1° |
| 2026-04-15 08:41 | -26.91248 | 153.24001 | 12619 ft | 388 kts | 0° |
| 2026-04-15 08:42 | -26.88542 | 153.24133 | 13176 ft | 390 kts | 360° |
| 2026-04-15 08:42 | -26.85824 | 153.24232 | 13718 ft | 392 kts | 359° |
| 2026-04-15 08:42 | -26.83091 | 153.24307 | 14260 ft | 395 kts | 359° |
| 2026-04-15 08:42 | -26.80330 | 153.24368 | 14806 ft | 397 kts | 358° |
| 2026-04-15 08:43 | -26.77562 | 153.24424 | 15346 ft | 399 kts | 358° |
| 2026-04-15 08:43 | -26.74773 | 153.24481 | 15876 ft | 402 kts | 358° |
| 2026-04-15 08:43 | -26.72008 | 153.24538 | 16391 ft | 404 kts | 358° |
| 2026-04-15 08:43 | -26.69165 | 153.24425 | 16889 ft | 404 kts | 350° |
| 2026-04-15 08:44 | -26.66422 | 153.23790 | 17372 ft | 402 kts | 340° |
| 2026-04-15 08:44 | -26.63773 | 153.22871 | 17852 ft | 404 kts | 339° |
| 2026-04-15 08:44 | -26.61086 | 153.21907 | 18312 ft | 406 kts | 339° |
| 2026-04-15 08:44 | -26.58380 | 153.20937 | 18763 ft | 409 kts | 339° |
| 2026-04-15 08:45 | -26.55653 | 153.19972 | 19186 ft | 412 kts | 339° |
| 2026-04-15 08:45 | -26.52912 | 153.19014 | 19597 ft | 414 kts | 339° |
| 2026-04-15 08:45 | -26.50152 | 153.18056 | 19998 ft | 417 kts | 339° |
| 2026-04-15 08:45 | -26.47370 | 153.17096 | 20379 ft | 419 kts | 339° |
| 2026-04-15 08:46 | -26.44609 | 153.16145 | 20754 ft | 422 kts | 339° |
| 2026-04-15 08:46 | -26.41786 | 153.15173 | 21121 ft | 424 kts | 339° |
| 2026-04-15 08:46 | -26.38954 | 153.14199 | 21483 ft | 426 kts | 339° |
| 2026-04-15 08:46 | -26.36111 | 153.13222 | 21819 ft | 429 kts | 338° |
| 2026-04-15 08:47 | -26.33249 | 153.12238 | 22157 ft | 431 kts | 338° |
| 2026-04-15 08:47 | -26.30374 | 153.11243 | 22486 ft | 432 kts | 336° |
| 2026-04-15 08:47 | -26.27645 | 153.09984 | 22787 ft | 429 kts | 328° |
| 2026-04-15 08:47 | -26.25106 | 153.08255 | 23098 ft | 426 kts | 319° |
| 2026-04-15 08:48 | -26.22732 | 153.06278 | 23401 ft | 427 kts | 318° |
| 2026-04-15 08:48 | -26.20356 | 153.04279 | 23721 ft | 429 kts | 319° |
| 2026-04-15 08:48 | -26.17959 | 153.02281 | 24005 ft | 431 kts | 319° |
| 2026-04-15 08:48 | -26.15544 | 153.00291 | 24316 ft | 432 kts | 319° |
| 2026-04-15 08:49 | -26.13120 | 152.98309 | 24616 ft | 433 kts | 319° |
| 2026-04-15 08:49 | -26.10686 | 152.96325 | 24896 ft | 434 kts | 319° |
| 2026-04-15 08:49 | -26.08237 | 152.94345 | 25165 ft | 435 kts | 319° |
| 2026-04-15 08:49 | -26.05817 | 152.92401 | 25444 ft | 436 kts | 319° |
| 2026-04-15 08:50 | -26.03347 | 152.90423 | 25700 ft | 437 kts | 319° |
| 2026-04-15 08:50 | -26.00871 | 152.88440 | 25937 ft | 438 kts | 319° |
| 2026-04-15 08:50 | -25.98403 | 152.86466 | 26197 ft | 438 kts | 319° |
| 2026-04-15 08:50 | -25.95918 | 152.84477 | 26321 ft | 442 kts | 319° |
| 2026-04-15 08:51 | -25.93409 | 152.82466 | 26532 ft | 443 kts | 319° |
| 2026-04-15 08:51 | -25.90910 | 152.80465 | 26766 ft | 443 kts | 319° |
| 2026-04-15 08:51 | -25.88405 | 152.78459 | 26993 ft | 444 kts | 318° |
| 2026-04-15 08:51 | -25.85902 | 152.76457 | 27211 ft | 444 kts | 318° |
| 2026-04-15 08:52 | -25.83391 | 152.74450 | 27440 ft | 444 kts | 318° |
| 2026-04-15 08:52 | -25.80881 | 152.72443 | 27616 ft | 445 kts | 318° |
| 2026-04-15 08:52 | -25.78401 | 152.70462 | 27783 ft | 445 kts | 318° |
| 2026-04-15 08:52 | -25.75884 | 152.68454 | 27937 ft | 446 kts | 318° |
| 2026-04-15 08:53 | -25.73357 | 152.66436 | 28070 ft | 448 kts | 318° |
| 2026-04-15 08:53 | -25.70836 | 152.64426 | 28414 ft | 444 kts | 318° |
| 2026-04-15 08:53 | -25.68335 | 152.62435 | 28674 ft | 442 kts | 317° |
| 2026-04-15 08:53 | -25.65833 | 152.60442 | 28860 ft | 443 kts | 317° |
| 2026-04-15 08:54 | -25.63323 | 152.58442 | 29099 ft | 442 kts | 317° |
| 2026-04-15 08:54 | -25.60860 | 152.56481 | 29370 ft | 441 kts | 317° |
| 2026-04-15 08:54 | -25.58375 | 152.54504 | 29637 ft | 439 kts | 317° |
| 2026-04-15 08:54 | -25.55897 | 152.52532 | 29899 ft | 437 kts | 317° |
| 2026-04-15 08:55 | -25.53422 | 152.50566 | 30176 ft | 435 kts | 317° |
| 2026-04-15 08:55 | -25.50971 | 152.48618 | 30469 ft | 433 kts | 317° |
| 2026-04-15 08:55 | -25.48548 | 152.46696 | 30741 ft | 431 kts | 317° |
| 2026-04-15 08:55 | -25.46104 | 152.44759 | 31006 ft | 430 kts | 317° |
| 2026-04-15 08:56 | -25.43682 | 152.42840 | 31306 ft | 427 kts | 317° |
| 2026-04-15 08:56 | -25.41273 | 152.40932 | 31625 ft | 425 kts | 317° |
| 2026-04-15 08:56 | -25.38877 | 152.39033 | 31923 ft | 423 kts | 317° |
| 2026-04-15 08:56 | -25.36490 | 152.37141 | 32155 ft | 421 kts | 317° |
| 2026-04-15 08:57 | -25.34094 | 152.35241 | 32139 ft | 423 kts | 317° |
| 2026-04-15 08:57 | -25.29309 | 152.31454 | 32140 ft | 422 kts | 317° |
| 2026-04-15 08:58 | -25.24548 | 152.27693 | 32149 ft | 420 kts | 317° |
| 2026-04-15 08:58 | -25.17457 | 152.22096 | 32142 ft | 419 kts | 317° |
| 2026-04-15 08:59 | -25.12711 | 152.18353 | 32152 ft | 419 kts | 317° |
| 2026-04-15 08:59 | -25.07961 | 152.14611 | 32149 ft | 420 kts | 317° |
| 2026-04-15 09:00 | -25.03190 | 152.10857 | 32151 ft | 422 kts | 317° |
| 2026-04-15 09:00 | -24.98391 | 152.07094 | 32141 ft | 424 kts | 318° |
| 2026-04-15 09:01 | -24.93558 | 152.03312 | 32142 ft | 427 kts | 318° |
| 2026-04-15 09:01 | -24.88728 | 151.99536 | 32338 ft | 425 kts | 318° |
| 2026-04-15 09:02 | -24.86313 | 151.97650 | 32537 ft | 426 kts | 319° |
| 2026-04-15 09:02 | -24.83881 | 151.95749 | 32576 ft | 430 kts | 319° |
| 2026-04-15 09:02 | -24.81437 | 151.93839 | 32689 ft | 432 kts | 319° |
| 2026-04-15 09:02 | -24.78989 | 151.91928 | 32935 ft | 430 kts | 319° |
| 2026-04-15 09:03 | -24.76544 | 151.90022 | 33251 ft | 428 kts | 319° |
| 2026-04-15 09:03 | -24.74145 | 151.88154 | 33560 ft | 426 kts | 319° |
| 2026-04-15 09:03 | -24.71729 | 151.86271 | 33834 ft | 424 kts | 319° |
| 2026-04-15 09:03 | -24.69324 | 151.84398 | 34069 ft | 422 kts | 319° |
| 2026-04-15 09:04 | -24.64526 | 151.80661 | 34137 ft | 424 kts | 319° |
| 2026-04-15 09:04 | -24.59700 | 151.76904 | 34142 ft | 425 kts | 319° |
| 2026-04-15 09:05 | -24.54875 | 151.73156 | 34137 ft | 424 kts | 319° |
| 2026-04-15 09:05 | -24.50080 | 151.69432 | 34127 ft | 424 kts | 319° |
| 2026-04-15 09:06 | -24.45259 | 151.65695 | 34130 ft | 424 kts | 319° |
| 2026-04-15 09:06 | -24.40440 | 151.61961 | 34131 ft | 423 kts | 319° |
| 2026-04-15 09:07 | -24.35626 | 151.58234 | 34127 ft | 423 kts | 319° |
| 2026-04-15 09:07 | -24.30812 | 151.54511 | 34128 ft | 423 kts | 319° |
| 2026-04-15 09:08 | -24.25995 | 151.50790 | 34129 ft | 423 kts | 319° |
| 2026-04-15 09:08 | -24.21181 | 151.47072 | 34131 ft | 423 kts | 320° |
| 2026-04-15 09:09 | -24.16392 | 151.43379 | 34131 ft | 423 kts | 320° |
| 2026-04-15 09:09 | -24.11563 | 151.39661 | 34135 ft | 424 kts | 320° |
| 2026-04-15 09:10 | -24.06726 | 151.35937 | 34127 ft | 425 kts | 320° |
| 2026-04-15 09:10 | -24.01884 | 151.32212 | 34132 ft | 425 kts | 320° |
| 2026-04-15 09:11 | -23.97045 | 151.28493 | 34124 ft | 425 kts | 320° |
| 2026-04-15 09:11 | -23.92223 | 151.24790 | 34130 ft | 425 kts | 320° |
| 2026-04-15 09:12 | -23.87364 | 151.21063 | 34125 ft | 426 kts | 320° |
| 2026-04-15 09:12 | -23.82309 | 151.17617 | 34137 ft | 429 kts | 324° |
| 2026-04-15 09:13 | -23.77181 | 151.14361 | 34128 ft | 429 kts | 325° |
| 2026-04-15 09:13 | -23.72016 | 151.11083 | 34129 ft | 429 kts | 325° |
| 2026-04-15 09:14 | -23.66866 | 151.07793 | 34129 ft | 429 kts | 325° |
| 2026-04-15 09:14 | -23.61713 | 151.04492 | 34127 ft | 429 kts | 325° |
| 2026-04-15 09:15 | -23.56560 | 151.01192 | 34129 ft | 429 kts | 325° |
| 2026-04-15 09:15 | -23.51446 | 150.97920 | 34129 ft | 429 kts | 325° |
| 2026-04-15 09:16 | -23.46301 | 150.94630 | 34132 ft | 429 kts | 325° |
| 2026-04-15 09:16 | -23.41154 | 150.91343 | 34129 ft | 429 kts | 325° |
| 2026-04-15 09:17 | -23.36006 | 150.88059 | 34127 ft | 429 kts | 325° |
| 2026-04-15 09:17 | -23.30848 | 150.84771 | 34128 ft | 429 kts | 325° |
| 2026-04-15 09:18 | -23.25698 | 150.81493 | 34133 ft | 429 kts | 325° |
| 2026-04-15 09:18 | -23.20583 | 150.78237 | 34125 ft | 429 kts | 326° |
| 2026-04-15 09:19 | -23.15419 | 150.74953 | 34136 ft | 429 kts | 326° |
| 2026-04-15 09:19 | -23.10257 | 150.71674 | 34123 ft | 430 kts | 326° |
| 2026-04-15 09:20 | -23.05079 | 150.68388 | 34134 ft | 430 kts | 326° |
| 2026-04-15 09:20 | -22.99930 | 150.65123 | 34127 ft | 431 kts | 326° |
| 2026-04-15 09:21 | -22.94738 | 150.61835 | 34130 ft | 432 kts | 326° |
| 2026-04-15 09:21 | -22.89536 | 150.58544 | 34126 ft | 432 kts | 326° |
| 2026-04-15 09:22 | -22.84336 | 150.55255 | 34129 ft | 433 kts | 326° |
| 2026-04-15 09:22 | -22.79160 | 150.51985 | 34127 ft | 433 kts | 326° |
| 2026-04-15 09:23 | -22.73952 | 150.48697 | 34133 ft | 433 kts | 327° |
| 2026-04-15 09:23 | -22.68732 | 150.45406 | 34131 ft | 433 kts | 327° |
| 2026-04-15 09:24 | -22.63524 | 150.42124 | 34126 ft | 433 kts | 327° |
| 2026-04-15 09:24 | -22.58312 | 150.38842 | 34128 ft | 433 kts | 327° |
| 2026-04-15 09:25 | -22.53976 | 150.36115 | 34131 ft | 434 kts | 327° |
| 2026-04-15 09:25 | -22.47902 | 150.32298 | 34129 ft | 434 kts | 327° |
| 2026-04-15 09:26 | -22.43553 | 150.29567 | 34123 ft | 434 kts | 327° |
| 2026-04-15 09:26 | -22.38319 | 150.26282 | 34117 ft | 435 kts | 327° |
| 2026-04-15 09:27 | -22.33073 | 150.22992 | 34121 ft | 435 kts | 327° |
| 2026-04-15 09:27 | -22.27837 | 150.19708 | 34117 ft | 435 kts | 326° |
| 2026-04-15 09:28 | -22.23059 | 150.15738 | 34126 ft | 433 kts | 317° |
| 2026-04-15 09:28 | -22.18524 | 150.11457 | 34117 ft | 434 kts | 317° |
| 2026-04-15 09:29 | -22.13964 | 150.07193 | 34117 ft | 434 kts | 318° |
| 2026-04-15 09:29 | -22.09407 | 150.02969 | 34114 ft | 435 kts | 318° |
| 2026-04-15 09:30 | -22.04811 | 149.98718 | 34110 ft | 435 kts | 318° |
| 2026-04-15 09:30 | -22.00211 | 149.94465 | 34110 ft | 435 kts | 318° |
| 2026-04-15 09:31 | -21.95605 | 149.90227 | 34112 ft | 435 kts | 318° |
| 2026-04-15 09:31 | -21.91027 | 149.86019 | 34110 ft | 436 kts | 318° |
| 2026-04-15 09:32 | -21.86407 | 149.81774 | 34106 ft | 436 kts | 318° |
| 2026-04-15 09:32 | -21.81788 | 149.77528 | 34099 ft | 436 kts | 318° |
| 2026-04-15 09:33 | -21.77170 | 149.73293 | 34101 ft | 436 kts | 318° |
| 2026-04-15 09:33 | -21.72580 | 149.69083 | 34103 ft | 435 kts | 318° |
| 2026-04-15 09:34 | -21.67964 | 149.64854 | 34101 ft | 436 kts | 318° |
| 2026-04-15 09:34 | -21.63349 | 149.60630 | 34090 ft | 435 kts | 318° |
| 2026-04-15 09:35 | -21.58731 | 149.56411 | 34090 ft | 436 kts | 319° |
| 2026-04-15 09:35 | -21.54113 | 149.52196 | 34095 ft | 435 kts | 319° |
| 2026-04-15 09:36 | -21.49520 | 149.48006 | 34093 ft | 435 kts | 319° |
| 2026-04-15 09:36 | -21.44902 | 149.43796 | 34087 ft | 435 kts | 319° |
| 2026-04-15 09:37 | -21.40283 | 149.39588 | 34096 ft | 436 kts | 319° |
| 2026-04-15 09:37 | -21.35652 | 149.35373 | 34084 ft | 437 kts | 319° |
| 2026-04-15 09:38 | -21.31009 | 149.31150 | 34082 ft | 437 kts | 319° |
| 2026-04-15 09:38 | -21.26363 | 149.26927 | 34086 ft | 438 kts | 319° |
| 2026-04-15 09:39 | -21.21730 | 149.22719 | 34084 ft | 439 kts | 319° |
| 2026-04-15 09:39 | -21.17087 | 149.18438 | 34079 ft | 441 kts | 314° |
| 2026-04-15 09:40 | -21.13087 | 149.13446 | 34083 ft | 440 kts | 309° |
| 2026-04-15 09:40 | -21.09225 | 149.08359 | 34080 ft | 440 kts | 309° |
| 2026-04-15 09:41 | -21.05364 | 149.03322 | 34077 ft | 439 kts | 309° |
| 2026-04-15 09:41 | -21.01468 | 148.98289 | 34084 ft | 439 kts | 309° |
| 2026-04-15 09:42 | -20.97562 | 148.93265 | 34086 ft | 438 kts | 309° |
| 2026-04-15 09:42 | -20.93655 | 148.88246 | 34082 ft | 438 kts | 309° |
| 2026-04-15 09:43 | -20.89772 | 148.83261 | 34069 ft | 439 kts | 309° |
| 2026-04-15 09:43 | -20.85865 | 148.78245 | 34080 ft | 438 kts | 310° |
| 2026-04-15 09:44 | -20.81956 | 148.73235 | 34069 ft | 439 kts | 310° |
| 2026-04-15 09:44 | -20.78039 | 148.68218 | 34075 ft | 439 kts | 310° |
| 2026-04-15 09:45 | -20.74149 | 148.63237 | 34076 ft | 439 kts | 310° |
| 2026-04-15 09:45 | -20.70231 | 148.58227 | 34075 ft | 439 kts | 310° |
| 2026-04-15 09:46 | -20.66310 | 148.53217 | 34074 ft | 440 kts | 310° |
| 2026-04-15 09:46 | -20.62379 | 148.48199 | 34076 ft | 441 kts | 310° |
| 2026-04-15 09:47 | -20.58436 | 148.43179 | 34075 ft | 441 kts | 310° |
| 2026-04-15 09:47 | -20.54482 | 148.38172 | 34075 ft | 441 kts | 310° |
| 2026-04-15 09:48 | -20.50521 | 148.33161 | 34072 ft | 442 kts | 310° |
| 2026-04-15 09:48 | -20.46553 | 148.28143 | 34076 ft | 442 kts | 310° |
| 2026-04-15 09:49 | -20.42575 | 148.23112 | 33648 ft | 449 kts | 310° |
| 2026-04-15 09:49 | -20.40584 | 148.20595 | 33037 ft | 449 kts | 310° |
| 2026-04-15 09:49 | -20.38580 | 148.18064 | 32562 ft | 444 kts | 310° |
| 2026-04-15 09:50 | -20.36595 | 148.15557 | 32028 ft | 441 kts | 310° |
| 2026-04-15 09:50 | -20.34628 | 148.13073 | 31526 ft | 437 kts | 310° |
| 2026-04-15 09:50 | -20.32669 | 148.10603 | 31011 ft | 434 kts | 311° |
| 2026-04-15 09:50 | -20.30718 | 148.08144 | 30501 ft | 431 kts | 311° |
| 2026-04-15 09:51 | -20.28813 | 148.05743 | 30004 ft | 428 kts | 311° |
| 2026-04-15 09:51 | -20.26900 | 148.03333 | 29502 ft | 424 kts | 311° |
| 2026-04-15 09:51 | -20.24999 | 148.00939 | 28990 ft | 421 kts | 311° |
| 2026-04-15 09:51 | -20.23109 | 147.98561 | 28479 ft | 419 kts | 311° |
| 2026-04-15 09:52 | -20.21228 | 147.96194 | 27974 ft | 417 kts | 311° |
| 2026-04-15 09:52 | -20.19363 | 147.93847 | 27465 ft | 414 kts | 311° |
| 2026-04-15 09:52 | -20.17504 | 147.91510 | 26969 ft | 412 kts | 311° |
| 2026-04-15 09:52 | -20.15651 | 147.89187 | 26459 ft | 410 kts | 311° |
| 2026-04-15 09:53 | -20.13803 | 147.86879 | 25955 ft | 408 kts | 311° |
| 2026-04-15 09:53 | -20.11963 | 147.84586 | 25463 ft | 406 kts | 311° |
| 2026-04-15 09:53 | -20.10130 | 147.82302 | 24971 ft | 404 kts | 311° |
| 2026-04-15 09:53 | -20.08308 | 147.80031 | 24475 ft | 403 kts | 311° |
| 2026-04-15 09:54 | -20.06514 | 147.77798 | 23993 ft | 402 kts | 311° |
| 2026-04-15 09:54 | -20.04697 | 147.75535 | 23503 ft | 400 kts | 311° |
| 2026-04-15 09:54 | -20.02894 | 147.73288 | 23009 ft | 399 kts | 311° |
| 2026-04-15 09:54 | -20.01097 | 147.71051 | 22527 ft | 397 kts | 310° |
| 2026-04-15 09:55 | -19.99308 | 147.68822 | 22043 ft | 395 kts | 310° |
| 2026-04-15 09:55 | -19.97526 | 147.66604 | 21560 ft | 393 kts | 310° |
| 2026-04-15 09:55 | -19.95753 | 147.64395 | 21082 ft | 392 kts | 310° |
| 2026-04-15 09:55 | -19.93987 | 147.62199 | 20601 ft | 390 kts | 310° |
| 2026-04-15 09:56 | -19.92229 | 147.60016 | 20125 ft | 388 kts | 310° |
| 2026-04-15 09:56 | -19.90480 | 147.57844 | 19651 ft | 386 kts | 310° |
| 2026-04-15 09:56 | -19.87000 | 147.53525 | 18695 ft | 382 kts | 310° |
| 2026-04-15 09:57 | -19.85276 | 147.51385 | 18234 ft | 381 kts | 310° |
| 2026-04-15 09:57 | -19.83560 | 147.49255 | 17765 ft | 378 kts | 310° |
| 2026-04-15 09:57 | -19.81874 | 147.47166 | 17310 ft | 375 kts | 310° |
| 2026-04-15 09:57 | -19.80180 | 147.45066 | 16848 ft | 373 kts | 310° |
| 2026-04-15 09:58 | -19.78499 | 147.42981 | 16394 ft | 370 kts | 310° |
| 2026-04-15 09:58 | -19.76827 | 147.40908 | 15938 ft | 368 kts | 311° |
| 2026-04-15 09:58 | -19.75167 | 147.38851 | 15489 ft | 366 kts | 311° |
| 2026-04-15 09:58 | -19.73518 | 147.36809 | 15036 ft | 363 kts | 311° |
| 2026-04-15 09:59 | -19.71875 | 147.34776 | 14583 ft | 361 kts | 311° |
| 2026-04-15 09:59 | -19.70245 | 147.32759 | 14136 ft | 359 kts | 311° |
| 2026-04-15 09:59 | -19.68624 | 147.30753 | 13689 ft | 356 kts | 311° |
| 2026-04-15 09:59 | -19.67011 | 147.28758 | 13247 ft | 354 kts | 311° |
| 2026-04-15 10:00 | -19.65412 | 147.26782 | 12808 ft | 352 kts | 311° |
| 2026-04-15 10:00 | -19.63830 | 147.24864 | 12372 ft | 349 kts | 316° |
| 2026-04-15 10:00 | -19.61872 | 147.23391 | 11867 ft | 346 kts | 336° |
| 2026-04-15 10:00 | -19.59612 | 147.22524 | 11393 ft | 344 kts | 343° |
| 2026-04-15 10:01 | -19.57339 | 147.21768 | 10935 ft | 342 kts | 343° |
| 2026-04-15 10:01 | -19.55065 | 147.21027 | 10618 ft | 336 kts | 344° |
| 2026-04-15 10:01 | -19.52868 | 147.20299 | 10466 ft | 326 kts | 343° |
| 2026-04-15 10:01 | -19.50740 | 147.19583 | 10300 ft | 316 kts | 343° |
| 2026-04-15 10:02 | -19.48680 | 147.18883 | 10171 ft | 306 kts | 343° |
| 2026-04-15 10:02 | -19.46687 | 147.18202 | 10037 ft | 297 kts | 343° |
| 2026-04-15 10:02 | -19.44759 | 147.17543 | 9986 ft | 285 kts | 343° |
| 2026-04-15 10:02 | -19.42866 | 147.16895 | 9562 ft | 287 kts | 343° |
| 2026-04-15 10:03 | -19.40999 | 147.16256 | 9267 ft | 285 kts | 343° |
| 2026-04-15 10:03 | -19.39112 | 147.15608 | 8952 ft | 284 kts | 344° |
| 2026-04-15 10:03 | -19.37238 | 147.14965 | 8644 ft | 282 kts | 344° |
| 2026-04-15 10:03 | -19.35380 | 147.14328 | 8345 ft | 280 kts | 344° |
| 2026-04-15 10:04 | -19.33616 | 147.13465 | 8036 ft | 281 kts | 327° |
| 2026-04-15 10:04 | -19.32064 | 147.12219 | 7767 ft | 279 kts | 324° |
| 2026-04-15 10:04 | -19.30534 | 147.10946 | 7471 ft | 278 kts | 324° |
| 2026-04-15 10:04 | -19.29035 | 147.09700 | 7180 ft | 277 kts | 324° |
| 2026-04-15 10:05 | -19.27513 | 147.08445 | 6889 ft | 276 kts | 324° |
| 2026-04-15 10:05 | -19.25997 | 147.07205 | 6593 ft | 275 kts | 325° |
| 2026-04-15 10:05 | -19.24481 | 147.05974 | 6299 ft | 274 kts | 325° |
| 2026-04-15 10:05 | -19.22969 | 147.04747 | 6005 ft | 273 kts | 325° |
| 2026-04-15 10:06 | -19.21459 | 147.03524 | 5723 ft | 273 kts | 325° |
| 2026-04-15 10:06 | -19.19953 | 147.02306 | 5402 ft | 271 kts | 326° |
| 2026-04-15 10:06 | -19.18538 | 147.00997 | 5053 ft | 273 kts | 315° |
| 2026-04-15 10:06 | -19.17331 | 146.99422 | 4672 ft | 276 kts | 309° |
| 2026-04-15 10:07 | -19.16194 | 146.97812 | 4514 ft | 270 kts | 309° |
| 2026-04-15 10:07 | -19.15091 | 146.96272 | 4386 ft | 263 kts | 310° |
| 2026-04-15 10:07 | -19.13991 | 146.94759 | 4263 ft | 255 kts | 310° |
| 2026-04-15 10:07 | -19.12910 | 146.93296 | 4158 ft | 248 kts | 311° |
| 2026-04-15 10:08 | -19.11863 | 146.91886 | 4044 ft | 240 kts | 311° |
| 2026-04-15 10:08 | -19.10832 | 146.90508 | 3873 ft | 234 kts | 311° |
| 2026-04-15 10:08 | -19.09834 | 146.89172 | 3633 ft | 229 kts | 311° |
| 2026-04-15 10:08 | -19.08889 | 146.87842 | 3402 ft | 225 kts | 300° |
| 2026-04-15 10:09 | -19.08658 | 146.86254 | 3184 ft | 219 kts | 254° |
| 2026-04-15 10:09 | -19.09441 | 146.84942 | 3006 ft | 215 kts | 218° |
| 2026-04-15 10:09 | -19.10593 | 146.83941 | 2762 ft | 211 kts | 210° |
| 2026-04-15 10:09 | -19.11822 | 146.83159 | 2563 ft | 201 kts | 204° |
| 2026-04-15 10:10 | -19.13052 | 146.82531 | 2327 ft | 192 kts | 200° |
| 2026-04-15 10:10 | -19.14243 | 146.81973 | 2084 ft | 181 kts | 202° |
| 2026-04-15 10:10 | -19.15359 | 146.81440 | 1854 ft | 171 kts | 201° |
| 2026-04-15 10:10 | -19.16415 | 146.80940 | 1671 ft | 162 kts | 201° |
| 2026-04-15 10:11 | -19.17424 | 146.80461 | 1433 ft | 155 kts | 201° |
| 2026-04-15 10:11 | -19.18407 | 146.79994 | 1230 ft | 155 kts | 202° |
| 2026-04-15 10:11 | -19.19396 | 146.79524 | 1024 ft | 156 kts | 202° |
| 2026-04-15 10:11 | -19.20378 | 146.79056 | 848 ft | 153 kts | 202° |
| 2026-04-15 10:12 | -19.21346 | 146.78590 | 549 ft | 158 kts | 202° |
| 2026-04-15 10:12 | -19.22325 | 146.78105 | 365 ft | 152 kts | 202° |
| 2026-04-15 10:12 | -19.23287 | 146.77670 | 175 ft | 150 kts | 203° |
| 2026-04-15 10:12 | -19.24230 | 146.77228 | 21 ft | 140 kts | 203° |
| 2026-04-15 10:13 | -19.24923 | 146.76902 | 22 ft | 78 kts | 204° |
| 2026-04-15 10:13 | -19.25269 | 146.76738 | 20 ft | 40 kts | 204° |
| 2026-04-15 10:13 | -19.25520 | 146.76618 | 20 ft | 40 kts | 204° |
| 2026-04-15 10:13 | -19.25719 | 146.76525 | 22 ft | 20 kts | 204° |
| 2026-04-15 10:14 | -19.25829 | 146.76516 | 23 ft | 14 kts | 137° |
| 2026-04-15 10:14 | -19.25839 | 146.76605 | 21 ft | 12 kts | 57° |
| 2026-04-15 10:14 | -19.25775 | 146.76653 | 21 ft | 11 kts | 28° |
| 2026-04-15 10:14 | -19.25711 | 146.76685 | 21 ft | 10 kts | 24° |
| 2026-04-15 10:15 | -19.25653 | 146.76717 | 21 ft | 9 kts | 30° |
| 2026-04-15 10:15 | -19.25620 | 146.76764 | 21 ft | 8 kts | 78° |
| 2026-04-15 10:15 | -19.25627 | 146.76806 | 21 ft | 9 kts | 114° |
| 2026-04-15 10:15 | -19.25651 | 146.76867 | 21 ft | 5 kts | 93° |
| 2026-04-15 10:16 | -19.25643 | 146.76891 | 21 ft | 6 kts | 58° |
| 2026-04-15 10:16 | -19.25604 | 146.76917 | 21 ft | 8 kts | 20° |
| 2026-04-15 10:16 | -19.25557 | 146.76949 | 21 ft | 5 kts | 77° |
| 2026-04-15 10:16 | -19.25564 | 146.76977 | 21 ft | 2 kts | 108° |
| 2026-04-15 10:17 | -19.25565 | 146.76983 | 21 ft | 0 kts | 106° |
| 2026-04-15 10:17 | -19.25565 | 146.76984 | 21 ft | 1 kts | 106° |
| 2026-04-15 10:17 | -19.25566 | 146.76987 | 21 ft | 0 kts | 107° |
| 2026-04-15 10:17 | -19.25567 | 146.76989 | 21 ft | 1 kts | 107° |
| 2026-04-15 10:18 | -19.25567 | 146.76990 | 21 ft | 0 kts | 107° |
| 2026-04-15 10:19 | -19.25570 | 146.76996 | 21 ft | 0 kts | 105° |